地図

経路データ

SID SEASON NUMBER BASIN SUBBASIN NAME ISO_TIME NATURE LAT LON WMO_WIND WMO_PRES WMO_AGENCY TRACK_TYPE DIST2LAND LANDFALL IFLAG USA_AGENCY USA_ATCF_ID USA_LAT USA_LON USA_RECORD USA_STATUS USA_WIND USA_PRES USA_SSHS USA_R34_NE USA_R34_SE USA_R34_SW USA_R34_NW USA_R50_NE USA_R50_SE USA_R50_SW USA_R50_NW USA_R64_NE USA_R64_SE USA_R64_SW USA_R64_NW USA_POCI USA_ROCI USA_RMW USA_EYE TOKYO_LAT TOKYO_LON TOKYO_GRADE TOKYO_WIND TOKYO_PRES TOKYO_R50_DIR TOKYO_R50_LONG TOKYO_R50_SHORT TOKYO_R30_DIR TOKYO_R30_LONG TOKYO_R30_SHORT TOKYO_LAND CMA_LAT CMA_LON CMA_CAT CMA_WIND CMA_PRES HKO_LAT HKO_LON HKO_CAT HKO_WIND HKO_PRES NEWDELHI_LAT NEWDELHI_LON NEWDELHI_GRADE NEWDELHI_WIND NEWDELHI_PRES NEWDELHI_CI NEWDELHI_DP NEWDELHI_POCI REUNION_LAT REUNION_LON REUNION_TYPE REUNION_WIND REUNION_PRES REUNION_TNUM REUNION_CI REUNION_RMW REUNION_R34_NE REUNION_R34_SE REUNION_R34_SW REUNION_R34_NW REUNION_R50_NE REUNION_R50_SE REUNION_R50_SW REUNION_R50_NW REUNION_R64_NE REUNION_R64_SE REUNION_R64_SW REUNION_R64_NW BOM_LAT BOM_LON BOM_TYPE BOM_WIND BOM_PRES BOM_TNUM BOM_CI BOM_RMW BOM_R34_NE BOM_R34_SE BOM_R34_SW BOM_R34_NW BOM_R50_NE BOM_R50_SE BOM_R50_SW BOM_R50_NW BOM_R64_NE BOM_R64_SE BOM_R64_SW BOM_R64_NW BOM_ROCI BOM_POCI BOM_EYE BOM_POS_METHOD BOM_PRES_METHOD NADI_LAT NADI_LON NADI_CAT NADI_WIND NADI_PRES WELLINGTON_LAT WELLINGTON_LON WELLINGTON_WIND WELLINGTON_PRES DS824_LAT DS824_LON DS824_STAGE DS824_WIND DS824_PRES TD9636_LAT TD9636_LON TD9636_STAGE TD9636_WIND TD9636_PRES TD9635_LAT TD9635_LON TD9635_WIND TD9635_PRES TD9635_ROCI NEUMANN_LAT NEUMANN_LON NEUMANN_CLASS NEUMANN_WIND NEUMANN_PRES MLC_LAT MLC_LON MLC_CLASS MLC_WIND MLC_PRES USA_GUST BOM_GUST BOM_GUST_PER REUNION_GUST REUNION_GUST_PER USA_SEAHGT USA_SEARAD_NE USA_SEARAD_SE USA_SEARAD_SW USA_SEARAD_NW STORM_SPEED STORM_DIR
1927039S15153 1927 5 SP EA NOT_NAMED 1927-02-07 23:00:00 NR -15.3000 152.700 main 569 569 __________O___ -1 -15.3000 152.700 7 3 255
1927039S15153 1927 5 SP EA NOT_NAMED 1927-02-08 00:00:00 NR -15.3100 152.654 main 569 561 __________P___ -1 -15.3100 152.654 7 3 257
1927039S15153 1927 5 SP EA NOT_NAMED 1927-02-08 03:00:00 NR -15.3393 152.516 main 561 561 __________P___ -1 -15.3393 152.516 7 3 258
1927039S15153 1927 5 SP EA NOT_NAMED 1927-02-08 06:00:00 NR -15.3660 152.371 main 568 561 __________P___ -1 -15.3660 152.371 7 3 260
1927039S15153 1927 5 SP EA NOT_NAMED 1927-02-08 09:00:00 NR -15.3884 152.214 main 561 557 __________P___ -1 -15.3884 152.214 7 3 263
1927039S15153 1927 5 SP EA NOT_NAMED 1927-02-08 11:00:00 NR -15.4000 152.100 main 557 557 __________O___ -1 -15.4000 152.100 7 3 264
1927039S15153 1927 5 SP EA NOT_NAMED 1927-02-08 12:00:00 NR -15.4046 152.040 main 554 550 __________P___ -1 -15.4046 152.040 7 4 267
1927039S15153 1927 5 SP EA NOT_NAMED 1927-02-08 15:00:00 NR -15.4133 151.849 main 547 544 __________P___ -1 -15.4133 151.849 7 4 268
1927039S15153 1927 5 SP EA NOT_NAMED 1927-02-08 18:00:00 NR -15.4146 151.647 main 542 539 __________P___ -1 -15.4146 151.647 7 4 271
1927039S15153 1927 5 SP EA NOT_NAMED 1927-02-08 21:00:00 NR -15.4083 151.439 main 537 535 __________P___ -1 -15.4083 151.439 7 4 273
1927039S15153 1927 5 SP EA NOT_NAMED 1927-02-08 23:00:00 NR -15.4000 151.300 main 535 533 __________O___ -1 -15.4000 151.300 7 4 275
1927039S15153 1927 5 SP EA NOT_NAMED 1927-02-09 00:00:00 NR -15.3925 151.233 main 533 530 __________P___ -1 -15.3925 151.233 7 4 278
1927039S15153 1927 5 SP EA NOT_NAMED 1927-02-09 03:00:00 NR -15.3636 151.033 main 530 516 __________P___ -1 -15.3636 151.033 7 4 279
1927039S15153 1927 5 SP EA NOT_NAMED 1927-02-09 06:00:00 NR -15.3323 150.833 main 516 515 __________P___ -1 -15.3323 150.833 7 4 278
1927039S15153 1927 5 SP EA NOT_NAMED 1927-02-09 09:00:00 NR -15.3078 150.633 main 515 515 __________P___ -1 -15.3078 150.633 7 4 276
1927039S15153 1927 5 SP EA NOT_NAMED 1927-02-09 11:00:00 NR -15.3000 150.500 main 515 515 __________O___ -1 -15.3000 150.500 7 4 272
1927039S15153 1927 5 SP EA NOT_NAMED 1927-02-09 12:00:00 NR -15.3004 150.435 main 515 496 __________P___ -1 -15.3004 150.435 7 4 267
1927039S15153 1927 5 SP EA NOT_NAMED 1927-02-09 15:00:00 NR -15.3120 150.239 main 496 487 __________P___ -1 -15.3120 150.239 7 4 264
1927039S15153 1927 5 SP EA NOT_NAMED 1927-02-09 18:00:00 NR -15.3370 150.041 main 477 463 __________P___ -1 -15.3370 150.041 7 4 261
1927039S15153 1927 5 SP EA NOT_NAMED 1927-02-09 21:00:00 NR -15.3723 149.839 main 453 443 __________P___ -1 -15.3723 149.839 7 4 259
1927039S15153 1927 5 SP EA NOT_NAMED 1927-02-09 23:00:00 NR -15.4000 149.700 main 443 433 __________O___ -1 -15.4000 149.700 7 4 259
1927039S15153 1927 5 SP EA NOT_NAMED 1927-02-10 00:00:00 NR -15.4121 149.627 main 433 409 __________P___ -1 -15.4121 149.627 7 4 260
1927039S15153 1927 5 SP EA NOT_NAMED 1927-02-10 03:00:00 NR -15.4533 149.402 main 409 390 __________P___ -1 -15.4533 149.402 7 4 258
1927039S15153 1927 5 SP EA NOT_NAMED 1927-02-10 06:00:00 NR -15.5021 149.174 main 390 366 __________P___ -1 -15.5021 149.174 7 5 257
1927039S15153 1927 5 SP EA NOT_NAMED 1927-02-10 09:00:00 NR -15.5583 148.947 main 356 346 __________P___ -1 -15.5583 148.947 7 4 255
1927039S15153 1927 5 SP EA NOT_NAMED 1927-02-10 11:00:00 NR -15.6000 148.800 main 346 346 __________O___ -1 -15.6000 148.800 7 4 253
1927039S15153 1927 5 SP EA NOT_NAMED 1927-02-10 12:00:00 NR -15.6191 148.741 main 337 322 __________P___ -1 -15.6191 148.741 7 3 250
1927039S15153 1927 5 SP EA NOT_NAMED 1927-02-10 15:00:00 NR -15.6807 148.574 main 322 303 __________P___ -1 -15.6807 148.574 7 4 248
1927039S15153 1927 5 SP EA NOT_NAMED 1927-02-10 18:00:00 NR -15.7518 148.398 main 298 279 __________P___ -1 -15.7518 148.398 7 4 248
1927039S15153 1927 5 SP EA NOT_NAMED 1927-02-10 21:00:00 NR -15.8356 148.182 main 279 255 __________P___ -1 -15.8356 148.182 7 5 249
1927039S15153 1927 5 SP EA NOT_NAMED 1927-02-10 23:00:00 NR -15.9000 148.000 main 255 246 __________O___ -1 -15.9000 148.000 7 6 250
1927039S15153 1927 5 SP EA NOT_NAMED 1927-02-11 00:00:00 NR -15.9337 147.898 main 246 213 __________P___ -1 -15.9337 147.898 7 7 252
1927039S15153 1927 5 SP EA NOT_NAMED 1927-02-11 03:00:00 NR -16.0451 147.548 main 204 164 __________P___ -1 -16.0451 147.548 7 8 252
1927039S15153 1927 5 SP EA NOT_NAMED 1927-02-11 06:00:00 NR -16.1699 147.131 main 156 115 __________P___ -1 -16.1699 147.131 7 9 253
1927039S15153 1927 5 SP EA NOT_NAMED 1927-02-11 09:00:00 NR -16.3053 146.652 main 115 77 __________P___ -1 -16.3053 146.652 7 10 254
1927039S15153 1927 5 SP EA NOT_NAMED 1927-02-11 11:00:00 NR -16.4000 146.300 main 77 61 __________O___ -1 -16.4000 146.300 7 11 255
1927039S15153 1927 5 SP EA NOT_NAMED 1927-02-11 12:00:00 NR -16.4458 146.100 main 61 0 __________P___ -1 -16.4458 146.100 7 13 257
1927039S15153 1927 5 SP EA NOT_NAMED 1927-02-11 15:00:00 NR -16.5882 145.449 main 0 0 __________P___ -1 -16.5882 145.449 7 13 257
1927039S15153 1927 5 SP EA NOT_NAMED 1927-02-11 18:00:00 NR -16.7372 144.776 main 0 0 __________P___ -1 -16.7372 144.776 7 13 256
1927039S15153 1927 5 SP EA NOT_NAMED 1927-02-11 21:00:00 NR -16.8926 144.152 main 0 0 __________P___ -1 -16.8926 144.152 7 12 254
1927039S15153 1927 5 SP EA NOT_NAMED 1927-02-11 23:00:00 NR -17.0000 143.800 main 0 0 __________O___ -1 -17.0000 143.800 7 10 251
1927039S15153 1927 5 SP EA NOT_NAMED 1927-02-12 00:00:00 NR -17.0557 143.666 main 0 0 __________P___ -1 -17.0557 143.666 7 7 242
1927039S15153 1927 5 SP EA NOT_NAMED 1927-02-12 03:00:00 NR -17.2295 143.348 main 0 0 __________P___ -1 -17.2295 143.348 7 6 236
1927039S15153 1927 5 SP EA NOT_NAMED 1927-02-12 06:00:00 NR -17.4084 143.117 main 0 0 __________P___ -1 -17.4084 143.117 7 5 228
1927039S15153 1927 5 SP EA NOT_NAMED 1927-02-12 09:00:00 NR -17.5858 142.927 main 0 0 __________P___ -1 -17.5858 142.927 7 5 226
1927039S15153 1927 5 SP EA NOT_NAMED 1927-02-12 11:00:00 NR -17.7000 142.800 main 0 0 __________O___ -1 -17.7000 142.800 7 5 228
1927039S15153 1927 5 SP EA NOT_NAMED 1927-02-12 12:00:00 NR -17.7705 142.717 main 0 0 __________P___ -1 -17.7705 142.717 7 6 228
1927039S15153 1927 5 SP EA NOT_NAMED 1927-02-12 15:00:00 NR -17.9838 142.467 main 0 0 __________P___ -1 -17.9838 142.467 7 6 230
1927039S15153 1927 5 SP EA NOT_NAMED 1927-02-12 18:00:00 NR -18.1680 142.217 main 0 0 __________P___ -1 -18.1680 142.217 7 6 238
1927039S15153 1927 5 SP EA NOT_NAMED 1927-02-12 21:00:00 NR -18.2825 141.967 main 0 0 __________P___ -1 -18.2825 141.967 7 5 252
1927039S15153 1927 5 SP EA NOT_NAMED 1927-02-12 23:00:00 NR -18.3000 141.800 main 0 0 __________O___ -1 -18.3000 141.800 7 5 268
1927039S15153 1927 5 SP EA NOT_NAMED 1927-02-13 00:00:00 NR -18.2902 141.705 main 0 0 __________P___ -1 -18.2902 141.705 7 6 287
1927039S15153 1927 5 SP EA NOT_NAMED 1927-02-13 03:00:00 NR -18.1876 141.417 main 0 0 __________P___ -1 -18.1876 141.417 7 6 299
1927039S15153 1927 5 SP EA NOT_NAMED 1927-02-13 06:00:00 NR -17.9899 141.144 main 0 0 __________P___ -1 -17.9899 141.144 7 7 315
1927039S15153 1927 5 SP EA NOT_NAMED 1927-02-13 09:00:00 NR -17.7158 140.915 main 0 0 __________P___ -1 -17.7158 140.915 7 7 326
1927039S15153 1927 5 SP EA NOT_NAMED 1927-02-13 11:00:00 NR -17.5000 140.800 main 0 0 __________O___ -1 -17.5000 140.800 7 7 335
1927039S15153 1927 5 SP EA NOT_NAMED 1927-02-13 12:00:00 NR -17.3842 140.757 main 10 10 __________P___ -1 -17.3842 140.757 7 8 346
1927039S15153 1927 5 SP EA NOT_NAMED 1927-02-13 15:00:00 NR -17.0110 140.679 main 31 31 __________P___ -1 -17.0110 140.679 7 8 354
1927039S15153 1927 5 SP EA NOT_NAMED 1927-02-13 18:00:00 NR -16.6079 140.660 main 54 54 __________P___ -1 -16.6079 140.660 7 8 359
1927039S15153 1927 5 SP EA NOT_NAMED 1927-02-13 21:00:00 NR -16.1861 140.678 main 67 67 __________P___ -1 -16.1861 140.678 7 9 3
1927039S15153 1927 5 SP EA NOT_NAMED 1927-02-13 23:00:00 NR -15.9000 140.700 main 74 __________O___ -1 -15.9000 140.700 7 9 0

デジタル台風データ・検索

IBTrACS Databaseについて

本データベースは、米国NOAAが公開する1842年以降の世界の熱帯低気圧のベストトラックデータアーカイブInternational Best Track Archive for Climate Stewardship (IBTrACS)を、ウェブで閲覧しやすい形式に変換したものです。

最終更新日:2021-10-08